Dickinson, ND

5:58 PM MST on December 04, 2016 (GMT -0700)
Southview | | Change Station

Elev 2434 ft 46.86 °N, 102.78 °W | Updated 13 seconds ago

Clear
Clear
25.1 °F
Feels Like 25 °F
N
2.0
Wind Variable Wind from ESE

Today
High -- | Low -- °F
--% Chance of Precip.
Yesterday
High -- | Low -- °F
Precip. -- in
Pressure 29.68 in
Visibility 10.0 miles
Clouds Clear
Windchill 25 °F
Dew Point 20 °F
Humidity 81%
Rainfall 0.00 in
Snow Depth Not available.
7:19 AM 4:03 PM
Waxing Crescent, 27% visible
METAR KDIK 050056Z AUTO 19008KT 10SM CLR M07/M10 A2957 RMK AO2 SLP049 T10721100
Pressure 29.68 in
Visibility 10.0 miles
Clouds Clear
Windchill 25 °F
Dew Point 20 °F
Humidity 81%
Rainfall 0.00 in
Snow Depth Not available.
7:19 AM 4:03 PM
Waxing Crescent, 27% visible
METAR KDIK 050056Z AUTO 19008KT 10SM CLR M07/M10 A2957 RMK AO2 SLP049 T10721100

10-Day Weather Forecast

Almanac

Astronomy

Dec. 04, 2016 Rise Set
Actual Time
Civil Twilight
Nautical Twilight
Astronomical Twilight
Moon
Length of Visible Light
Length of Day
Tomorrow will be .
, % of the Moon is Illuminated

Today's Extremes

State Highs State Lows

Community

WunderPhotos

Upload Photos

1,955,729 photos uploaded!

WunderBlog® & News

Nearby

Air Quality

  Air Quality AQ Index Pollutant
Not available.

Snow Depth

Station Depth Elevation

Earthquake Activity

City Distance Mag. Time & Date
Minimum magnitude displayed is 2.5.

Coastal Water Temperatures

Place Temperature

Stations

Nearby Weather Stations

Station Location Temp. Windchill Dew Point Humidity Wind Precip. Elev Updated Type
                   

Watches & Warnings

There are currently no watches in effect.